Time;durP1;ratioP1;P1;durP2;ratioP2;P2;SDS_P1;SDS_P2;PMS_P1;PMS_P2;Temp;Humidity;BMP_temperature;BMP_pressure;BME280_temperature;BME280_humidity;BME280_pressure;Samples;Min_cycle;Max_cycle;Signal;HPM_P1;HPM_P2
2023/03/09 00:01:25;;;;;;;2.47;1.92;;;20.80;29.50;;;;;;5040535;28;20017;-53
2023/03/09 00:03:51;;;;;;;2.05;1.85;;;20.80;29.50;;;;;;5038516;28;21000;-53
2023/03/09 00:06:18;;;;;;;2.30;2.10;;;20.80;29.50;;;;;;5038246;28;20017;-51
2023/03/09 00:08:46;;;;;;;2.10;1.83;;;20.80;29.50;;;;;;5041775;28;20032;-51
2023/03/09 00:11:13;;;;;;;2.40;2.00;;;20.80;29.50;;;;;;5040929;28;20114;-52
2023/03/09 00:13:39;;;;;;;2.22;1.92;;;20.80;29.60;;;;;;5040390;28;20048;-53
2023/03/09 00:16:31;;;;;;;2.40;1.98;;;20.80;29.60;;;;;;5041731;28;20044;-53
2023/03/09 00:18:58;;;;;;;2.28;2.00;;;20.80;29.60;;;;;;5040730;28;20409;-50
2023/03/09 00:21:36;;;;;;;2.45;1.88;;;20.70;29.60;;;;;;5069712;28;20067;-50
2023/03/09 00:24:08;;;;;;;2.50;2.30;;;20.70;29.60;;;;;;5043394;28;20033;-53
2023/03/09 00:26:36;;;;;;;1.63;1.52;;;20.70;29.60;;;;;;5047434;28;20033;-54
2023/03/09 00:29:04;;;;;;;1.98;1.77;;;20.70;29.60;;;;;;5040592;28;20060;-50
2023/03/09 00:31:30;;;;;;;2.30;2.10;;;20.70;29.60;;;;;;5043166;28;20496;-54
2023/03/09 00:33:55;;;;;;;2.20;2.00;;;20.70;29.60;;;;;;5044892;28;20116;-49
2023/03/09 00:36:21;;;;;;;2.47;2.00;;;20.70;29.60;;;;;;5044919;28;20025;-50
2023/03/09 00:38:58;;;;;;;2.35;2.00;;;20.70;30.00;;;;;;5044723;28;20441;-53
2023/03/09 00:41:30;;;;;;;3.13;2.20;;;20.70;29.60;;;;;;5043185;28;20201;-53
2023/03/09 00:43:57;;;;;;;2.53;2.25;;;20.70;29.60;;;;;;5045785;28;20439;-53
2023/03/09 00:46:23;;;;;;;2.55;2.20;;;20.60;29.60;;;;;;5046595;28;20033;-54
2023/03/09 00:48:49;;;;;;;3.63;2.47;;;20.60;29.60;;;;;;5044939;28;20498;-49
2023/03/09 00:51:15;;;;;;;3.03;2.30;;;20.60;29.60;;;;;;5042649;28;21341;-53
2023/03/09 00:53:42;;;;;;;3.05;1.88;;;20.60;29.60;;;;;;5043091;28;20071;-54
2023/03/09 00:56:12;;;;;;;2.45;2.10;;;20.60;29.60;;;;;;5042081;28;20040;-53
2023/03/09 00:58:38;;;;;;;2.20;2.00;;;20.60;29.60;;;;;;5040545;28;20118;-55
2023/03/09 01:01:11;;;;;;;2.40;2.20;;;20.60;29.60;;;;;;5043445;28;20024;-52
2023/03/09 01:03:39;;;;;;;2.70;2.10;;;20.60;29.60;;;;;;5058776;28;20040;-53
2023/03/09 01:06:06;;;;;;;2.05;1.85;;;20.60;29.60;;;;;;5042764;28;20322;-52
2023/03/09 01:08:33;;;;;;;2.80;2.05;;;20.60;29.60;;;;;;5037337;28;20025;-51
2023/03/09 01:10:59;;;;;;;2.60;2.10;;;20.50;29.60;;;;;;5042976;28;20029;-52
2023/03/09 01:13:25;;;;;;;2.25;1.90;;;20.60;29.60;;;;;;5036640;28;20053;-51
2023/03/09 01:15:51;;;;;;;2.25;2.03;;;20.50;29.60;;;;;;5047531;28;20021;-51
2023/03/09 01:18:17;;;;;;;2.40;2.20;;;20.50;29.60;;;;;;5037941;28;20033;-51
2023/03/09 01:20:43;;;;;;;2.05;1.67;;;20.50;29.60;;;;;;5044283;28;20035;-53
2023/03/09 01:23:09;;;;;;;2.53;2.20;;;20.50;29.60;;;;;;5042298;28;20055;-53
2023/03/09 01:25:35;;;;;;;2.58;2.30;;;20.50;29.60;;;;;;5045051;28;20041;-50
2023/03/09 01:28:01;;;;;;;2.38;2.13;;;20.50;29.60;;;;;;5045226;28;20097;-53
2023/03/09 01:30:28;;;;;;;2.10;1.90;;;20.50;29.60;;;;;;5044528;28;20128;-54
2023/03/09 01:32:54;;;;;;;2.40;2.00;;;20.50;29.60;;;;;;5036131;28;20120;-52
2023/03/09 01:35:20;;;;;;;2.30;1.98;;;20.50;29.60;;;;;;5039440;28;20029;-53
2023/03/09 01:37:46;;;;;;;2.58;2.25;;;20.40;29.60;;;;;;5040833;28;20030;-53
2023/03/09 01:40:25;;;;;;;2.72;2.28;;;20.50;29.60;;;;;;5045746;28;21440;-50
2023/03/09 01:42:59;;;;;;;1.95;1.75;;;20.50;29.70;;;;;;5041796;28;20033;-52
2023/03/09 01:45:25;;;;;;;2.13;1.85;;;20.40;29.80;;;;;;5043006;28;20037;-53
2023/03/09 01:47:56;;;;;;;2.40;2.20;;;20.40;29.70;;;;;;5043120;28;21732;-47
2023/03/09 01:50:29;;;;;;;1.88;1.77;;;20.40;29.70;;;;;;5043491;28;20049;-48
2023/03/09 01:52:57;;;;;;;2.72;2.25;;;20.40;29.70;;;;;;5046162;28;20017;-52
2023/03/09 01:55:32;;;;;;;2.17;1.90;;;20.40;29.70;;;;;;5048883;28;20120;-52
2023/03/09 01:58:03;;;;;;;2.47;2.00;;;20.40;29.70;;;;;;5049483;28;20116;-52
2023/03/09 02:00:31;;;;;;;2.00;1.80;;;20.40;29.70;;;;;;5042644;28;20029;-53
2023/03/09 02:03:11;;;;;;;2.30;1.95;;;20.40;29.70;;;;;;5044927;28;20254;-51
2023/03/09 02:05:47;;;;;;;2.22;1.77;;;20.40;29.70;;;;;;5036462;28;20041;-49
2023/03/09 02:08:17;;;;;;;2.10;1.88;;;20.40;29.70;;;;;;5045117;28;20029;-52
2023/03/09 02:11:08;;;;;;;2.15;1.95;;;20.40;29.70;;;;;;5046169;28;20539;-50
2023/03/09 02:13:40;;;;;;;2.17;1.80;;;20.40;29.70;;;;;;5043342;28;20516;-54
2023/03/09 02:16:06;;;;;;;2.05;1.85;;;20.40;29.70;;;;;;5043296;28;20045;-52
2023/03/09 02:18:32;;;;;;;2.10;1.90;;;20.30;29.60;;;;;;5046991;28;20063;-53
2023/03/09 02:21:22;;;;;;;2.20;2.00;;;20.40;29.70;;;;;;5044548;28;20044;-53
2023/03/09 02:24:06;;;;;;;1.75;1.65;;;20.30;29.70;;;;;;5075169;28;20068;-52
2023/03/09 02:26:47;;;;;;;1.95;1.73;;;20.30;29.70;;;;;;5038819;28;20032;-51
2023/03/09 02:29:15;;;;;;;2.42;2.03;;;20.30;29.70;;;;;;5043951;28;20662;-50
2023/03/09 02:31:41;;;;;;;2.25;2.05;;;20.30;29.70;;;;;;5049260;28;20024;-53
2023/03/09 02:34:09;;;;;;;2.20;2.00;;;20.30;29.70;;;;;;5044809;28;20038;-51
2023/03/09 02:36:35;;;;;;;2.53;2.20;;;20.30;29.70;;;;;;5042667;28;20021;-52
2023/03/09 02:39:22;;;;;;;2.65;2.42;;;20.30;29.70;;;;;;5042312;28;21949;-51
2023/03/09 02:41:50;;;;;;;2.47;2.15;;;20.30;29.70;;;;;;5045173;28;20116;-53
2023/03/09 02:44:19;;;;;;;2.35;2.15;;;20.20;29.60;;;;;;5041868;28;20037;-50
2023/03/09 02:46:45;;;;;;;2.60;2.40;;;20.30;29.70;;;;;;5046897;28;20055;-52
2023/03/09 02:49:11;;;;;;;3.25;2.60;;;20.30;29.70;;;;;;5044147;28;20471;-51
2023/03/09 02:51:37;;;;;;;2.67;2.47;;;20.20;29.70;;;;;;5042283;28;20029;-47
2023/03/09 02:54:03;;;;;;;2.67;2.25;;;20.20;29.70;;;;;;5046386;28;20389;-53
2023/03/09 02:56:29;;;;;;;2.10;1.90;;;20.20;29.70;;;;;;5041105;28;20036;-53
2023/03/09 02:58:55;;;;;;;2.20;2.00;;;20.20;29.70;;;;;;5040354;28;20083;-54
2023/03/09 03:01:21;;;;;;;2.50;2.20;;;20.20;29.70;;;;;;5045769;28;20053;-50
2023/03/09 03:03:47;;;;;;;2.38;2.17;;;20.20;29.70;;;;;;5042674;28;20087;-50
2023/03/09 03:06:13;;;;;;;3.55;2.10;;;20.20;29.70;;;;;;5041511;28;20025;-50
2023/03/09 03:08:39;;;;;;;2.38;2.17;;;20.20;29.70;;;;;;5042149;28;20030;-51
2023/03/09 03:11:09;;;;;;;2.42;2.20;;;20.20;29.70;;;;;;5038671;28;20029;-51
2023/03/09 03:13:39;;;;;;;2.45;2.08;;;20.20;29.70;;;;;;5053716;28;20092;-51
2023/03/09 03:16:07;;;;;;;2.38;2.10;;;20.20;29.70;;;;;;5036961;28;20044;-50
2023/03/09 03:18:33;;;;;;;2.25;2.05;;;20.20;29.70;;;;;;5043588;28;20029;-52
2023/03/09 03:20:59;;;;;;;2.30;2.00;;;20.20;29.70;;;;;;5057037;28;20017;-50
2023/03/09 03:23:26;;;;;;;2.63;2.30;;;20.20;29.70;;;;;;5039551;28;20118;-53
2023/03/09 03:25:54;;;;;;;2.25;2.05;;;20.20;29.70;;;;;;5036449;28;20365;-54
2023/03/09 03:28:21;;;;;;;2.25;2.00;;;20.20;29.70;;;;;;5049879;28;20352;-52
2023/03/09 03:30:51;;;;;;;2.45;2.00;;;20.10;29.70;;;;;;5036887;28;20183;-54
2023/03/09 03:33:19;;;;;;;2.35;2.10;;;20.10;29.70;;;;;;5037296;28;20029;-49
2023/03/09 03:35:45;;;;;;;2.72;1.92;;;20.10;29.70;;;;;;5034403;28;20036;-51
2023/03/09 03:38:11;;;;;;;2.17;1.92;;;20.20;29.70;;;;;;5037443;28;20025;-51
2023/03/09 03:40:38;;;;;;;2.22;2.03;;;20.10;29.70;;;;;;5042696;28;20116;-51
2023/03/09 03:43:07;;;;;;;2.08;1.83;;;20.10;29.70;;;;;;5043864;28;20048;-53
2023/03/09 03:45:34;;;;;;;1.80;1.70;;;20.10;29.80;;;;;;5038716;28;20033;-50
2023/03/09 03:48:00;;;;;;;2.13;1.90;;;20.10;29.80;;;;;;5068133;28;20025;-54
2023/03/09 03:50:29;;;;;;;1.90;1.80;;;20.10;29.80;;;;;;5044831;28;20040;-53
2023/03/09 03:53:00;;;;;;;2.28;2.05;;;20.10;29.80;;;;;;5041914;28;20360;-53
2023/03/09 03:55:27;;;;;;;2.30;2.10;;;20.10;29.80;;;;;;5054675;28;20182;-52
2023/03/09 03:57:53;;;;;;;2.20;2.00;;;20.10;29.80;;;;;;5041853;28;20026;-53
2023/03/09 04:00:19;;;;;;;2.10;1.90;;;20.00;29.70;;;;;;5046753;28;20092;-53
2023/03/09 04:02:47;;;;;;;2.10;1.90;;;20.10;29.80;;;;;;5039061;28;20029;-53
2023/03/09 04:05:19;;;;;;;2.17;1.98;;;20.00;29.80;;;;;;5045159;28;20040;-50
2023/03/09 04:07:46;;;;;;;2.20;2.00;;;20.00;29.80;;;;;;5043361;28;20072;-52
2023/03/09 04:10:12;;;;;;;2.10;1.85;;;20.00;29.70;;;;;;5038541;28;20460;-53
2023/03/09 04:12:42;;;;;;;1.98;1.80;;;20.10;29.80;;;;;;5037179;28;20460;-54
2023/03/09 04:15:10;;;;;;;2.60;2.40;;;20.10;29.80;;;;;;5058144;28;20384;-50
2023/03/09 04:17:36;;;;;;;1.98;1.80;;;20.00;29.70;;;;;;5042520;28;20049;-54
2023/03/09 04:20:04;;;;;;;2.45;2.25;;;20.10;29.80;;;;;;5037013;28;20149;-52
2023/03/09 04:22:30;;;;;;;2.67;2.22;;;20.00;29.80;;;;;;5037653;28;20072;-54
2023/03/09 04:24:56;;;;;;;2.72;2.30;;;20.00;29.80;;;;;;5059389;28;20179;-54
2023/03/09 04:27:22;;;;;;;2.47;2.28;;;20.00;29.70;;;;;;5045885;28;20036;-54
2023/03/09 04:30:10;;;;;;;2.78;2.55;;;20.00;29.80;;;;;;5039996;28;20159;-51
2023/03/09 04:32:36;;;;;;;2.22;2.03;;;20.00;29.80;;;;;;5042867;28;20382;-49
2023/03/09 04:35:07;;;;;;;2.70;2.40;;;20.00;29.80;;;;;;5043814;28;20079;-52
2023/03/09 04:37:35;;;;;;;2.42;2.22;;;20.00;29.80;;;;;;5040959;28;20025;-51
2023/03/09 04:40:01;;;;;;;2.88;2.60;;;20.00;29.80;;;;;;5070634;28;20341;-52
2023/03/09 04:42:29;;;;;;;2.70;2.50;;;20.00;29.80;;;;;;5044649;28;20441;-53
2023/03/09 04:44:55;;;;;;;2.55;2.35;;;19.90;29.80;;;;;;5040453;28;20090;-51
2023/03/09 04:47:22;;;;;;;2.90;2.30;;;20.00;29.80;;;;;;5043103;28;20075;-52
2023/03/09 04:49:49;;;;;;;2.50;2.30;;;19.90;29.80;;;;;;5047437;28;20029;-51
2023/03/09 04:52:15;;;;;;;2.88;2.67;;;19.90;29.80;;;;;;5039441;28;20076;-50
2023/03/09 04:54:41;;;;;;;2.70;2.45;;;19.90;29.80;;;;;;5045961;28;20094;-47
2023/03/09 04:57:08;;;;;;;2.40;2.20;;;20.00;29.80;;;;;;5039143;28;20039;-52
2023/03/09 04:59:34;;;;;;;2.60;2.40;;;19.90;29.80;;;;;;5040486;28;20345;-53
2023/03/09 05:02:00;;;;;;;3.35;2.83;;;19.90;29.80;;;;;;5047177;28;20451;-53
2023/03/09 05:04:36;;;;;;;2.85;2.47;;;19.90;29.80;;;;;;5042646;28;20045;-51
2023/03/09 05:07:02;;;;;;;2.63;2.42;;;19.90;29.80;;;;;;5041549;28;20361;-47
2023/03/09 05:09:28;;;;;;;2.70;2.50;;;19.90;29.80;;;;;;5040989;28;20030;-54
2023/03/09 05:11:54;;;;;;;2.80;2.55;;;19.90;29.80;;;;;;5038648;28;20029;-52
2023/03/09 05:14:22;;;;;;;2.38;2.17;;;19.90;30.30;;;;;;5041615;28;20387;-50
2023/03/09 05:16:52;;;;;;;2.63;2.42;;;19.90;29.80;;;;;;5042563;28;20028;-53
2023/03/09 05:19:20;;;;;;;4.15;2.45;;;19.90;29.80;;;;;;5039539;28;20352;-52
2023/03/09 05:21:47;;;;;;;3.38;2.75;;;19.90;29.80;;;;;;5038690;28;20025;-55
2023/03/09 05:24:15;;;;;;;2.72;2.53;;;19.90;29.90;;;;;;5039799;28;20518;-50
2023/03/09 05:26:41;;;;;;;2.53;2.33;;;19.90;29.90;;;;;;5042517;28;20030;-52
2023/03/09 05:29:08;;;;;;;3.22;2.92;;;19.90;29.90;;;;;;5060159;28;20032;-53
2023/03/09 05:31:36;;;;;;;2.35;2.15;;;19.90;29.90;;;;;;5045833;28;20033;-52
2023/03/09 05:34:03;;;;;;;3.13;2.83;;;19.90;29.90;;;;;;5058800;28;20036;-51
2023/03/09 05:36:29;;;;;;;2.80;2.60;;;19.90;29.90;;;;;;5045500;28;20028;-53
2023/03/09 05:38:58;;;;;;;3.55;2.70;;;19.80;29.90;;;;;;5041005;28;20411;-52
2023/03/09 05:41:25;;;;;;;3.30;2.60;;;19.80;29.90;;;;;;5067736;28;20368;-53
2023/03/09 05:43:59;;;;;;;3.00;2.70;;;19.80;29.90;;;;;;5041650;28;20395;-52
2023/03/09 05:46:25;;;;;;;3.00;2.80;;;19.80;29.90;;;;;;5042253;28;20029;-53
2023/03/09 05:48:51;;;;;;;2.58;2.38;;;19.80;29.90;;;;;;5043407;28;20032;-52
2023/03/09 05:51:17;;;;;;;2.80;2.60;;;19.80;29.90;;;;;;5039272;28;20113;-54
2023/03/09 05:53:44;;;;;;;2.97;2.75;;;19.80;29.90;;;;;;5039760;28;20424;-52
2023/03/09 05:56:12;;;;;;;2.78;2.50;;;19.80;29.90;;;;;;5043147;28;20034;-52
2023/03/09 05:58:38;;;;;;;2.65;2.40;;;19.80;29.90;;;;;;5039969;28;20035;-54
2023/03/09 06:01:14;;;;;;;2.90;2.60;;;19.80;29.90;;;;;;5039269;28;20021;-52
2023/03/09 06:03:40;;;;;;;2.60;2.40;;;19.80;29.90;;;;;;5041632;28;20037;-53
2023/03/09 06:06:06;;;;;;;2.70;2.40;;;19.80;29.90;;;;;;5041954;28;20042;-53
2023/03/09 06:08:38;;;;;;;2.50;2.30;;;19.80;29.90;;;;;;5039919;28;20087;-50
2023/03/09 06:11:09;;;;;;;2.78;2.53;;;19.80;30.00;;;;;;5042114;28;20021;-51
2023/03/09 06:13:35;;;;;;;2.67;2.47;;;19.80;30.00;;;;;;5041219;28;20487;-53
2023/03/09 06:16:04;;;;;;;2.88;2.53;;;19.80;30.00;;;;;;5034461;28;20038;-53
2023/03/09 06:18:30;;;;;;;2.75;2.53;;;19.80;30.00;;;;;;5041595;28;20029;-49
2023/03/09 06:21:03;;;;;;;2.65;2.40;;;19.80;30.00;;;;;;5039943;28;20114;-53
2023/03/09 06:23:29;;;;;;;2.60;2.40;;;19.80;30.00;;;;;;5035125;28;20033;-47
2023/03/09 06:25:56;;;;;;;3.03;2.60;;;19.80;30.00;;;;;;5047972;28;20040;-52
2023/03/09 06:28:23;;;;;;;2.30;2.10;;;19.70;30.00;;;;;;5039416;28;20025;-55
2023/03/09 06:30:49;;;;;;;2.30;2.10;;;19.70;30.00;;;;;;5032996;28;20024;-49
2023/03/09 06:33:15;;;;;;;2.60;2.40;;;19.80;30.00;;;;;;5037522;28;20052;-52
2023/03/09 06:35:45;;;;;;;3.28;2.72;;;19.70;30.00;;;;;;5037185;28;20029;-51
2023/03/09 06:38:11;;;;;;;2.42;2.22;;;19.80;30.00;;;;;;5044323;28;20021;-52
2023/03/09 06:40:39;;;;;;;3.10;2.30;;;19.70;30.00;;;;;;5044931;28;20437;-52
2023/03/09 06:43:06;;;;;;;2.38;2.10;;;19.70;30.00;;;;;;5039446;28;20360;-51
2023/03/09 06:45:33;;;;;;;2.55;2.35;;;19.70;30.00;;;;;;5037763;28;20041;-52
2023/03/09 06:48:00;;;;;;;2.85;2.45;;;19.70;30.00;;;;;;5039959;28;20475;-48
2023/03/09 06:50:28;;;;;;;2.28;2.08;;;19.70;30.00;;;;;;5044618;28;20082;-54
2023/03/09 06:52:56;;;;;;;2.80;2.50;;;19.70;30.10;;;;;;5042028;28;20243;-49
2023/03/09 06:55:22;;;;;;;3.75;2.40;;;19.70;30.10;;;;;;5043644;28;20039;-52
2023/03/09 06:57:56;;;;;;;4.33;2.70;;;19.70;30.10;;;;;;5043508;28;20340;-51
2023/03/09 07:00:23;;;;;;;2.80;2.60;;;19.70;30.10;;;;;;5046930;28;20029;-50
2023/03/09 07:02:53;;;;;;;4.00;2.35;;;19.60;30.00;;;;;;5037955;28;20029;-53
2023/03/09 07:05:19;;;;;;;2.67;2.47;;;19.70;30.10;;;;;;5041773;28;20045;-51
2023/03/09 07:07:45;;;;;;;2.80;2.60;;;19.60;30.10;;;;;;5040660;28;20318;-47
2023/03/09 07:10:12;;;;;;;2.60;2.25;;;19.60;30.10;;;;;;5038736;28;20122;-51
2023/03/09 07:12:38;;;;;;;3.05;2.75;;;19.60;30.10;;;;;;5041047;28;20021;-48
2023/03/09 07:15:05;;;;;;;2.25;2.00;;;19.60;30.10;;;;;;5040142;28;20144;-50
2023/03/09 07:17:31;;;;;;;2.78;2.22;;;19.60;30.10;;;;;;5038232;28;20049;-49
2023/03/09 07:19:57;;;;;;;2.58;2.30;;;19.60;30.10;;;;;;5039323;28;20061;-48
2023/03/09 07:22:24;;;;;;;3.25;2.28;;;19.60;30.10;;;;;;5038842;28;20064;-48
2023/03/09 07:24:50;;;;;;;2.53;2.33;;;19.60;30.10;;;;;;5043153;28;20056;-52
2023/03/09 07:27:18;;;;;;;2.70;2.47;;;19.60;30.10;;;;;;5041368;28;20075;-50
2023/03/09 07:29:45;;;;;;;2.80;2.50;;;19.60;30.10;;;;;;5044677;28;20025;-53
2023/03/09 07:32:12;;;;;;;2.50;2.30;;;19.60;30.20;;;;;;5054654;28;20067;-48
2023/03/09 07:34:38;;;;;;;4.07;2.35;;;19.60;30.30;;;;;;5045906;28;20523;-49
2023/03/09 07:37:04;;;;;;;2.58;2.35;;;19.60;30.40;;;;;;5037669;28;20029;-51
2023/03/09 07:39:30;;;;;;;2.95;2.40;;;19.60;30.40;;;;;;5037096;28;20044;-51
2023/03/09 07:41:56;;;;;;;3.03;2.17;;;19.60;30.40;;;;;;5039868;28;20033;-51
2023/03/09 07:44:28;;;;;;;2.20;2.00;;;19.60;30.40;;;;;;5034481;28;20041;-50
2023/03/09 07:46:54;;;;;;;2.40;2.05;;;19.70;30.40;;;;;;5045265;28;20130;-54
2023/03/09 07:49:20;;;;;;;2.40;2.20;;;19.60;30.40;;;;;;5046403;28;20037;-50
2023/03/09 07:51:46;;;;;;;2.70;2.08;;;19.70;30.40;;;;;;5053975;28;20040;-53
2023/03/09 07:54:12;;;;;;;2.53;1.90;;;19.70;30.60;;;;;;5051116;28;20337;-52
2023/03/09 07:56:38;;;;;;;2.15;1.80;;;19.70;30.90;;;;;;5054311;28;20037;-50
2023/03/09 07:59:04;;;;;;;2.00;1.80;;;19.80;31.30;;;;;;5053547;28;20043;-52
2023/03/09 08:01:30;;;;;;;2.97;1.63;;;19.80;31.50;;;;;;5053140;28;20032;-49
2023/03/09 08:03:56;;;;;;;3.50;1.45;;;19.90;31.70;;;;;;5053858;28;20037;-50
2023/03/09 08:06:21;;;;;;;3.67;1.63;;;20.00;31.60;;;;;;5053872;28;20039;-50
2023/03/09 08:08:48;;;;;;;2.72;2.00;;;20.00;31.50;;;;;;5054858;28;20433;-52
2023/03/09 08:11:14;;;;;;;2.30;1.88;;;20.00;31.30;;;;;;5053337;28;20029;-51
2023/03/09 08:13:40;;;;;;;2.38;1.83;;;20.10;31.20;;;;;;5048176;28;20045;-49
2023/03/09 08:16:08;;;;;;;2.75;1.80;;;20.20;31.00;;;;;;5053679;28;20024;-47
2023/03/09 08:18:35;;;;;;;1.70;1.60;;;20.20;30.80;;;;;;5052041;28;20356;-48
2023/03/09 08:21:06;;;;;;;1.95;1.75;;;20.30;30.70;;;;;;5052678;28;20043;-46
2023/03/09 08:23:35;;;;;;;1.90;1.70;;;20.40;30.60;;;;;;5052393;28;20037;-52
2023/03/09 08:26:01;;;;;;;1.80;1.65;;;20.40;30.50;;;;;;5052453;28;20047;-51
2023/03/09 08:28:27;;;;;;;1.95;1.70;;;20.40;30.30;;;;;;5047374;28;20025;-46
2023/03/09 08:30:53;;;;;;;2.45;1.80;;;20.50;30.20;;;;;;5052504;28;20025;-51
2023/03/09 08:33:19;;;;;;;2.40;1.90;;;20.50;30.10;;;;;;5053147;28;20043;-52
2023/03/09 08:35:45;;;;;;;2.20;2.00;;;20.50;30.00;;;;;;5059765;28;20366;-52
2023/03/09 08:38:11;;;;;;;2.70;1.88;;;20.60;30.00;;;;;;5054378;28;20448;-52
2023/03/09 08:40:38;;;;;;;2.22;2.00;;;20.60;30.00;;;;;;5059047;28;20038;-50
2023/03/09 08:43:04;;;;;;;2.03;1.67;;;20.70;30.00;;;;;;5058620;28;20383;-48
2023/03/09 08:45:30;;;;;;;2.10;1.90;;;20.80;29.90;;;;;;5062232;28;20044;-46
2023/03/09 08:47:56;;;;;;;2.05;1.85;;;20.70;29.80;;;;;;5058579;28;20044;-49
2023/03/09 08:50:22;;;;;;;2.17;1.98;;;20.80;29.80;;;;;;5060108;28;20112;-52
2023/03/09 08:52:47;;;;;;;1.77;1.67;;;20.90;29.80;;;;;;5060830;28;20033;-50
2023/03/09 08:55:13;;;;;;;1.65;1.55;;;20.90;29.70;;;;;;5054597;28;20067;-54
2023/03/09 08:57:39;;;;;;;2.63;2.03;;;20.90;29.60;;;;;;5047753;28;20029;-48
2023/03/09 09:00:08;;;;;;;1.80;1.70;;;20.90;29.60;;;;;;5052843;28;20075;-48
2023/03/09 09:02:34;;;;;;;2.33;2.08;;;20.90;29.50;;;;;;5054278;28;20036;-51
2023/03/09 09:05:00;;;;;;;2.38;2.10;;;21.00;29.50;;;;;;5054061;28;20028;-51
2023/03/09 09:07:28;;;;;;;2.42;2.22;;;20.90;29.50;;;;;;5051795;28;20094;-50
2023/03/09 09:09:54;;;;;;;1.75;1.65;;;21.00;29.50;;;;;;5061145;28;20456;-51
2023/03/09 09:12:20;;;;;;;2.88;2.10;;;21.00;29.50;;;;;;5052494;28;20098;-46
2023/03/09 09:14:46;;;;;;;2.88;2.17;;;21.00;29.40;;;;;;5056654;28;20094;-52
2023/03/09 09:17:11;;;;;;;2.20;2.00;;;21.00;29.40;;;;;;5053314;28;20071;-50
2023/03/09 09:19:40;;;;;;;2.30;2.10;;;21.00;29.40;;;;;;5054058;28;20448;-50
2023/03/09 09:22:08;;;;;;;2.50;2.30;;;21.00;29.40;;;;;;5057841;28;20040;-50
2023/03/09 09:24:36;;;;;;;2.78;2.28;;;21.00;29.40;;;;;;5074003;28;20044;-47
2023/03/09 09:27:06;;;;;;;2.20;2.00;;;21.00;29.40;;;;;;5068599;28;20094;-47
2023/03/09 09:29:36;;;;;;;3.05;2.38;;;21.00;29.40;;;;;;5053553;28;20029;-50
2023/03/09 09:32:03;;;;;;;2.40;2.00;;;21.00;29.40;;;;;;5054949;28;20041;-51
2023/03/09 09:34:31;;;;;;;2.50;2.10;;;21.00;29.40;;;;;;5053240;28;20395;-48
2023/03/09 09:37:01;;;;;;;2.20;2.00;;;21.00;29.40;;;;;;5051922;28;20017;-52
2023/03/09 09:39:28;;;;;;;2.80;2.33;;;21.00;29.40;;;;;;5050801;28;20068;-49
2023/03/09 09:41:57;;;;;;;2.25;2.05;;;21.00;29.40;;;;;;5052499;28;20146;-50
2023/03/09 09:44:29;;;;;;;2.50;2.22;;;21.00;29.40;;;;;;5052546;28;20049;-49
2023/03/09 09:46:58;;;;;;;2.60;2.40;;;20.90;29.40;;;;;;5051716;28;20433;-51
2023/03/09 09:49:26;;;;;;;2.80;2.50;;;21.00;29.50;;;;;;5052055;28;20040;-48
2023/03/09 09:52:25;;;;;;;2.50;2.30;;;20.90;29.40;;;;;;5050850;28;20025;-52
2023/03/09 09:54:53;;;;;;;2.97;2.67;;;21.00;29.50;;;;;;5049233;28;20107;-46
2023/03/09 09:57:25;;;;;;;2.78;2.50;;;20.90;29.50;;;;;;5063023;28;20036;-50
2023/03/09 10:00:11;;;;;;;2.60;2.40;;;20.90;29.50;;;;;;5069720;28;20037;-51
2023/03/09 10:03:25;;;;;;;3.08;2.78;;;20.90;29.50;;;;;;5035789;28;20033;-47
2023/03/09 10:06:22;;;;;;;2.53;2.33;;;20.90;29.50;;;;;;5031277;28;20072;-50
2023/03/09 10:08:58;;;;;;;2.80;2.50;;;20.90;29.50;;;;;;5050122;28;20111;-50
2023/03/09 10:11:33;;;;;;;3.10;2.50;;;20.90;29.50;;;;;;5056718;28;20106;-51
2023/03/09 10:14:19;;;;;;;3.20;2.80;;;20.90;29.50;;;;;;5051070;28;20232;-49
2023/03/09 10:16:53;;;;;;;3.33;2.72;;;20.90;29.50;;;;;;5035150;28;20045;-49
2023/03/09 10:19:33;;;;;;;3.58;2.83;;;20.90;30.00;;;;;;5055947;28;20063;-49
2023/03/09 10:22:07;;;;;;;3.50;2.97;;;20.90;29.60;;;;;;5055487;28;20051;-46
2023/03/09 10:24:53;;;;;;;2.92;2.63;;;20.90;29.60;;;;;;5054060;28;20045;-48
2023/03/09 10:27:45;;;;;;;3.03;2.72;;;20.90;29.60;;;;;;5055532;28;20056;-50
2023/03/09 10:30:36;;;;;;;3.03;2.63;;;20.90;29.60;;;;;;5056137;28;20444;-48
2023/03/09 10:33:02;;;;;;;3.15;2.60;;;20.90;29.60;;;;;;5055030;28;20036;-46
2023/03/09 10:35:37;;;;;;;3.35;2.67;;;20.90;29.60;;;;;;5055914;28;20365;-49
2023/03/09 10:38:03;;;;;;;3.40;3.05;;;20.80;29.60;;;;;;5056103;28;20025;-50
2023/03/09 10:40:35;;;;;;;3.95;3.22;;;20.90;29.60;;;;;;5054994;28;20470;-49
2023/03/09 10:43:01;;;;;;;3.50;3.20;;;20.90;29.60;;;;;;5052691;28;20033;-49
2023/03/09 10:45:32;;;;;;;2.55;2.25;;;20.90;29.70;;;;;;5055514;28;20041;-48
2023/03/09 10:48:00;;;;;;;4.22;2.92;;;20.80;29.60;;;;;;5055461;28;20357;-51
2023/03/09 10:50:33;;;;;;;3.90;3.03;;;20.80;29.60;;;;;;5053503;28;20033;-51
2023/03/09 10:53:28;;;;;;;3.42;2.75;;;20.80;29.60;;;;;;5055034;28;20056;-49
2023/03/09 10:56:04;;;;;;;3.40;2.80;;;20.80;29.60;;;;;;5054142;28;20031;-49
2023/03/09 10:58:30;;;;;;;3.03;2.72;;;20.80;29.60;;;;;;5055615;28;20107;-47
2023/03/09 11:00:58;;;;;;;3.92;3.28;;;20.80;29.70;;;;;;5055409;28;20112;-49
2023/03/09 11:03:32;;;;;;;3.63;3.00;;;20.80;29.70;;;;;;5054509;28;20036;-52
2023/03/09 11:06:30;;;;;;;3.23;2.93;;;20.80;29.70;;;;;;5054864;28;20154;-52
2023/03/09 11:09:19;;;;;;;3.53;3.17;;;20.80;29.70;;;;;;5052455;28;20306;-48
2023/03/09 11:11:48;;;;;;;3.38;2.97;;;20.80;29.70;;;;;;5054427;28;20025;-48
2023/03/09 11:14:22;;;;;;;3.40;2.75;;;20.80;29.70;;;;;;5054205;28;20469;-53
2023/03/09 11:16:54;;;;;;;3.67;3.20;;;20.80;29.70;;;;;;5055047;28;20025;-48
2023/03/09 11:19:20;;;;;;;3.40;2.85;;;20.80;29.70;;;;;;5059419;28;20482;-51
2023/03/09 11:21:56;;;;;;;3.15;2.65;;;20.80;29.80;;;;;;5053163;28;20024;-52
2023/03/09 11:24:38;;;;;;;2.90;2.70;;;20.80;29.70;;;;;;5056154;28;20247;-49
2023/03/09 11:27:18;;;;;;;3.80;3.22;;;20.80;29.80;;;;;;5052197;28;20166;-52
2023/03/09 11:30:06;;;;;;;3.30;3.00;;;20.80;29.70;;;;;;5055732;28;20351;-50
2023/03/09 11:32:32;;;;;;;3.88;3.25;;;20.80;29.70;;;;;;5056737;28;20036;-52
2023/03/09 11:34:59;;;;;;;4.07;3.50;;;20.80;29.70;;;;;;5056336;28;20444;-52
2023/03/09 11:37:45;;;;;;;3.25;2.80;;;20.80;29.70;;;;;;5051235;28;20067;-52
2023/03/09 11:40:19;;;;;;;3.42;3.08;;;20.90;29.80;;;;;;5052888;28;20083;-53
2023/03/09 11:43:18;;;;;;;3.40;3.05;;;20.80;29.80;;;;;;5046305;28;20040;-48
2023/03/09 11:45:43;;;;;;;3.67;2.97;;;20.90;29.80;;;;;;5051590;28;20032;-53
2023/03/09 11:48:23;;;;;;;3.65;2.72;;;20.90;29.80;;;;;;5054443;28;20098;-53
2023/03/09 11:51:04;;;;;;;3.53;2.83;;;20.90;29.90;;;;;;5053928;28;20036;-49
2023/03/09 11:53:44;;;;;;;3.03;2.60;;;20.90;29.90;;;;;;5050575;28;20094;-50
2023/03/09 11:56:16;;;;;;;3.03;2.72;;;20.90;29.90;;;;;;5052218;28;20629;-50
2023/03/09 11:58:47;;;;;;;2.90;2.60;;;20.90;29.90;;;;;;5050590;28;20029;-48
2023/03/09 12:01:19;;;;;;;3.45;2.75;;;20.90;29.90;;;;;;5049048;28;20057;-48
2023/03/09 12:04:06;;;;;;;2.90;2.55;;;20.90;30.00;;;;;;5048742;28;20029;-51
2023/03/09 12:07:05;;;;;;;3.03;2.63;;;20.90;29.90;;;;;;5052350;28;20112;-53
2023/03/09 12:09:52;;;;;;;3.15;2.58;;;20.90;29.90;;;;;;5053726;28;20033;-50
2023/03/09 12:12:46;;;;;;;2.92;2.63;;;21.00;29.90;;;;;;5052319;28;20025;-48
2023/03/09 12:15:41;;;;;;;4.53;2.55;;;21.00;29.90;;;;;;5041930;28;20365;-49
2023/03/09 12:18:17;;;;;;;;;;;21.00;30.00;;;;;;5063961;28;20035;-50
2023/03/09 12:20:52;;;;;;;3.50;3.00;;;21.00;30.00;;;;;;5056789;28;19916;-51
2023/03/09 12:23:36;;;;;;;3.55;2.78;;;21.00;30.00;;;;;;5043010;28;20025;-53
2023/03/09 12:26:03;;;;;;;3.38;2.78;;;20.90;30.00;;;;;;5042950;28;20459;-52
2023/03/09 12:28:29;;;;;;;3.17;2.88;;;21.00;30.00;;;;;;5043912;28;20021;-51
2023/03/09 12:30:57;;;;;;;3.35;3.00;;;21.00;30.00;;;;;;5030217;28;20357;-50
2023/03/09 12:33:44;;;;;;;3.42;2.90;;;20.90;30.00;;;;;;5039927;28;20026;-48
2023/03/09 12:36:25;;;;;;;3.08;2.78;;;21.00;30.00;;;;;;5053763;28;20032;-51
2023/03/09 12:39:22;;;;;;;3.08;2.78;;;21.00;30.00;;;;;;5046316;28;20049;-53
2023/03/09 12:42:05;;;;;;;3.72;3.05;;;21.00;30.00;;;;;;5039093;28;20032;-54
2023/03/09 12:44:46;;;;;;;3.73;3.33;;;21.00;30.10;;;;;;5033740;28;20128;-51
2023/03/09 12:47:30;;;;;;;3.25;2.95;;;21.00;30.10;;;;;;5033225;28;20036;-50
2023/03/09 12:49:57;;;;;;;2.50;2.30;;;21.00;30.20;;;;;;5041312;28;20028;-53
2023/03/09 12:53:01;;;;;;;3.25;2.85;;;21.00;30.30;;;;;;5044275;28;20029;-52
2023/03/09 12:55:29;;;;;;;5.80;2.88;;;21.00;30.40;;;;;;5040416;28;20095;-52
2023/03/09 12:58:22;;;;;;;4.18;2.80;;;21.00;30.60;;;;;;5039004;28;20017;-50
2023/03/09 13:00:53;;;;;;;5.75;2.90;;;21.00;30.70;;;;;;5040783;28;20068;-54
2023/03/09 13:03:28;;;;;;;4.50;2.70;;;21.00;30.60;;;;;;5039528;28;20029;-53
2023/03/09 13:05:56;;;;;;;4.07;3.25;;;21.10;30.60;;;;;;5040537;28;20175;-52